sensor_id;sensor_type;location;lat;lon;timestamp;P1;durP1;ratioP1;P2;durP2;ratioP2
83562;SDS011;73535;52.500;13.482;2023-11-21T00:00:45;10.07;;;7.22;;
83562;SDS011;73535;52.500;13.482;2023-11-21T00:03:10;12.07;;;7.93;;
83562;SDS011;73535;52.500;13.482;2023-11-21T00:05:36;12.10;;;9.07;;
83562;SDS011;73535;52.500;13.482;2023-11-21T00:08:01;13.75;;;9.00;;
83562;SDS011;73535;52.500;13.482;2023-11-21T00:10:27;11.02;;;8.55;;
83562;SDS011;73535;52.500;13.482;2023-11-21T00:15:19;13.85;;;9.73;;
83562;SDS011;73535;52.500;13.482;2023-11-21T00:17:45;14.73;;;10.00;;
83562;SDS011;73535;52.500;13.482;2023-11-21T00:20:11;15.52;;;10.05;;
83562;SDS011;73535;52.500;13.482;2023-11-21T00:22:38;14.05;;;10.65;;
83562;SDS011;73535;52.500;13.482;2023-11-21T00:25:05;16.38;;;11.35;;
83562;SDS011;73535;52.500;13.482;2023-11-21T00:27:30;19.90;;;11.15;;
83562;SDS011;73535;52.500;13.482;2023-11-21T00:29:56;16.63;;;11.65;;
83562;SDS011;73535;52.500;13.482;2023-11-21T00:32:21;17.60;;;12.63;;
83562;SDS011;73535;52.500;13.482;2023-11-21T00:34:46;18.70;;;13.45;;
83562;SDS011;73535;52.500;13.482;2023-11-21T00:37:12;21.65;;;13.75;;
83562;SDS011;73535;52.500;13.482;2023-11-21T00:39:37;23.42;;;14.63;;
83562;SDS011;73535;52.500;13.482;2023-11-21T00:42:02;24.00;;;14.65;;
83562;SDS011;73535;52.500;13.482;2023-11-21T00:44:29;27.52;;;14.70;;
83562;SDS011;73535;52.500;13.482;2023-11-21T00:46:55;30.58;;;15.38;;
83562;SDS011;73535;52.500;13.482;2023-11-21T00:49:20;28.35;;;15.20;;
83562;SDS011;73535;52.500;13.482;2023-11-21T00:51:45;31.38;;;16.23;;
83562;SDS011;73535;52.500;13.482;2023-11-21T00:54:11;26.73;;;15.20;;
83562;SDS011;73535;52.500;13.482;2023-11-21T00:56:36;33.03;;;16.60;;
83562;SDS011;73535;52.500;13.482;2023-11-21T00:59:02;30.95;;;16.83;;
83562;SDS011;73535;52.500;13.482;2023-11-21T01:01:29;30.85;;;16.50;;
83562;SDS011;73535;52.500;13.482;2023-11-21T01:03:55;29.75;;;15.70;;
83562;SDS011;73535;52.500;13.482;2023-11-21T01:06:20;28.63;;;15.48;;
83562;SDS011;73535;52.500;13.482;2023-11-21T01:08:45;33.58;;;16.20;;
83562;SDS011;73535;52.500;13.482;2023-11-21T01:11:11;32.03;;;16.23;;
83562;SDS011;73535;52.500;13.482;2023-11-21T01:13:39;29.67;;;16.40;;
83562;SDS011;73535;52.500;13.482;2023-11-21T01:16:05;33.25;;;16.35;;
83562;SDS011;73535;52.500;13.482;2023-11-21T01:18:36;33.90;;;17.05;;
83562;SDS011;73535;52.500;13.482;2023-11-21T01:21:02;38.58;;;19.63;;
83562;SDS011;73535;52.500;13.482;2023-11-21T01:23:27;38.42;;;17.63;;
83562;SDS011;73535;52.500;13.482;2023-11-21T01:25:53;37.95;;;18.92;;
83562;SDS011;73535;52.500;13.482;2023-11-21T01:28:19;37.17;;;19.00;;
83562;SDS011;73535;52.500;13.482;2023-11-21T01:30:45;40.33;;;19.85;;
83562;SDS011;73535;52.500;13.482;2023-11-21T01:33:10;45.83;;;21.95;;
83562;SDS011;73535;52.500;13.482;2023-11-21T01:35:36;45.58;;;20.67;;
83562;SDS011;73535;52.500;13.482;2023-11-21T01:38:01;50.30;;;22.45;;
83562;SDS011;73535;52.500;13.482;2023-11-21T01:40:26;44.10;;;21.48;;
83562;SDS011;73535;52.500;13.482;2023-11-21T01:42:52;48.20;;;21.95;;
83562;SDS011;73535;52.500;13.482;2023-11-21T01:45:18;50.30;;;21.27;;
83562;SDS011;73535;52.500;13.482;2023-11-21T01:47:43;50.65;;;21.45;;
83562;SDS011;73535;52.500;13.482;2023-11-21T01:50:09;51.47;;;22.35;;
83562;SDS011;73535;52.500;13.482;2023-11-21T01:52:40;51.00;;;23.48;;
83562;SDS011;73535;52.500;13.482;2023-11-21T01:55:07;58.58;;;23.00;;
83562;SDS011;73535;52.500;13.482;2023-11-21T01:57:34;57.97;;;22.60;;
83562;SDS011;73535;52.500;13.482;2023-11-21T02:00:02;58.85;;;25.13;;
83562;SDS011;73535;52.500;13.482;2023-11-21T02:02:42;58.10;;;23.58;;
83562;SDS011;73535;52.500;13.482;2023-11-21T02:05:20;54.08;;;22.83;;
83562;SDS011;73535;52.500;13.482;2023-11-21T02:07:46;57.38;;;23.63;;
83562;SDS011;73535;52.500;13.482;2023-11-21T02:10:13;50.97;;;20.77;;
83562;SDS011;73535;52.500;13.482;2023-11-21T02:12:42;49.88;;;19.45;;
83562;SDS011;73535;52.500;13.482;2023-11-21T02:15:08;54.40;;;21.23;;
83562;SDS011;73535;52.500;13.482;2023-11-21T02:17:40;48.78;;;19.40;;
83562;SDS011;73535;52.500;13.482;2023-11-21T02:20:08;44.45;;;18.23;;
83562;SDS011;73535;52.500;13.482;2023-11-21T02:22:40;40.10;;;17.02;;
83562;SDS011;73535;52.500;13.482;2023-11-21T02:27:32;39.72;;;16.90;;
83562;SDS011;73535;52.500;13.482;2023-11-21T02:29:58;38.58;;;15.82;;
83562;SDS011;73535;52.500;13.482;2023-11-21T02:32:23;33.85;;;15.02;;
83562;SDS011;73535;52.500;13.482;2023-11-21T02:34:50;32.28;;;15.00;;
83562;SDS011;73535;52.500;13.482;2023-11-21T02:37:16;31.52;;;13.25;;
83562;SDS011;73535;52.500;13.482;2023-11-21T02:39:41;29.70;;;13.18;;
83562;SDS011;73535;52.500;13.482;2023-11-21T02:42:06;34.38;;;13.20;;
83562;SDS011;73535;52.500;13.482;2023-11-21T02:44:32;25.75;;;12.48;;
83562;SDS011;73535;52.500;13.482;2023-11-21T02:46:57;19.52;;;10.82;;
83562;SDS011;73535;52.500;13.482;2023-11-21T02:49:22;21.02;;;10.07;;
83562;SDS011;73535;52.500;13.482;2023-11-21T02:51:48;22.67;;;11.40;;
83562;SDS011;73535;52.500;13.482;2023-11-21T02:54:13;17.17;;;9.65;;
83562;SDS011;73535;52.500;13.482;2023-11-21T02:56:38;17.00;;;9.40;;
83562;SDS011;73535;52.500;13.482;2023-11-21T02:59:04;18.45;;;9.63;;
83562;SDS011;73535;52.500;13.482;2023-11-21T03:01:30;16.77;;;9.30;;
83562;SDS011;73535;52.500;13.482;2023-11-21T03:03:55;17.50;;;9.80;;
83562;SDS011;73535;52.500;13.482;2023-11-21T03:06:21;18.33;;;10.02;;
83562;SDS011;73535;52.500;13.482;2023-11-21T03:08:47;17.08;;;9.65;;
83562;SDS011;73535;52.500;13.482;2023-11-21T03:11:12;16.27;;;10.48;;
83562;SDS011;73535;52.500;13.482;2023-11-21T03:13:41;16.08;;;9.77;;
83562;SDS011;73535;52.500;13.482;2023-11-21T03:16:10;16.70;;;9.35;;
83562;SDS011;73535;52.500;13.482;2023-11-21T03:18:39;14.13;;;9.13;;
83562;SDS011;73535;52.500;13.482;2023-11-21T03:21:04;15.95;;;9.30;;
83562;SDS011;73535;52.500;13.482;2023-11-21T03:23:30;14.13;;;8.57;;
83562;SDS011;73535;52.500;13.482;2023-11-21T03:25:56;14.48;;;9.38;;
83562;SDS011;73535;52.500;13.482;2023-11-21T03:28:21;14.15;;;9.18;;
83562;SDS011;73535;52.500;13.482;2023-11-21T03:30:46;13.63;;;9.38;;
83562;SDS011;73535;52.500;13.482;2023-11-21T03:33:12;13.23;;;9.10;;
83562;SDS011;73535;52.500;13.482;2023-11-21T03:35:37;12.40;;;8.32;;
83562;SDS011;73535;52.500;13.482;2023-11-21T03:38:02;11.02;;;8.10;;
83562;SDS011;73535;52.500;13.482;2023-11-21T03:40:28;11.95;;;8.05;;
83562;SDS011;73535;52.500;13.482;2023-11-21T03:42:53;14.60;;;8.93;;
83562;SDS011;73535;52.500;13.482;2023-11-21T03:45:18;12.73;;;8.13;;
83562;SDS011;73535;52.500;13.482;2023-11-21T03:47:43;12.05;;;7.93;;
83562;SDS011;73535;52.500;13.482;2023-11-21T03:50:09;10.85;;;7.55;;
83562;SDS011;73535;52.500;13.482;2023-11-21T03:52:34;12.45;;;8.60;;
83562;SDS011;73535;52.500;13.482;2023-11-21T03:55:00;9.75;;;7.75;;
83562;SDS011;73535;52.500;13.482;2023-11-21T03:57:26;10.07;;;6.55;;
83562;SDS011;73535;52.500;13.482;2023-11-21T03:59:52;10.73;;;7.28;;
83562;SDS011;73535;52.500;13.482;2023-11-21T04:02:18;10.10;;;6.90;;
83562;SDS011;73535;52.500;13.482;2023-11-21T04:04:43;11.55;;;7.57;;
83562;SDS011;73535;52.500;13.482;2023-11-21T04:07:09;10.07;;;6.85;;
83562;SDS011;73535;52.500;13.482;2023-11-21T04:09:34;10.38;;;7.05;;
83562;SDS011;73535;52.500;13.482;2023-11-21T04:12:01;9.90;;;7.07;;
83562;SDS011;73535;52.500;13.482;2023-11-21T04:14:26;10.25;;;6.88;;
83562;SDS011;73535;52.500;13.482;2023-11-21T04:16:51;11.02;;;7.07;;
83562;SDS011;73535;52.500;13.482;2023-11-21T04:21:43;11.27;;;7.00;;
83562;SDS011;73535;52.500;13.482;2023-11-21T04:24:09;10.00;;;6.72;;
83562;SDS011;73535;52.500;13.482;2023-11-21T04:26:34;10.60;;;7.38;;
83562;SDS011;73535;52.500;13.482;2023-11-21T04:28:59;12.02;;;7.82;;
83562;SDS011;73535;52.500;13.482;2023-11-21T04:31:25;11.07;;;8.02;;
83562;SDS011;73535;52.500;13.482;2023-11-21T04:33:50;11.70;;;7.85;;
83562;SDS011;73535;52.500;13.482;2023-11-21T04:36:15;9.23;;;6.18;;
83562;SDS011;73535;52.500;13.482;2023-11-21T04:38:41;9.00;;;6.68;;
83562;SDS011;73535;52.500;13.482;2023-11-21T04:41:06;8.48;;;6.35;;
83562;SDS011;73535;52.500;13.482;2023-11-21T04:43:31;11.35;;;6.30;;
83562;SDS011;73535;52.500;13.482;2023-11-21T04:45:56;8.20;;;6.00;;
83562;SDS011;73535;52.500;13.482;2023-11-21T04:48:22;8.95;;;6.40;;
83562;SDS011;73535;52.500;13.482;2023-11-21T04:50:47;10.00;;;6.72;;
83562;SDS011;73535;52.500;13.482;2023-11-21T04:53:12;10.02;;;6.80;;
83562;SDS011;73535;52.500;13.482;2023-11-21T04:58:04;9.05;;;6.18;;
83562;SDS011;73535;52.500;13.482;2023-11-21T05:00:29;7.35;;;5.32;;
83562;SDS011;73535;52.500;13.482;2023-11-21T05:02:55;8.82;;;5.95;;
83562;SDS011;73535;52.500;13.482;2023-11-21T05:05:20;8.25;;;6.22;;
83562;SDS011;73535;52.500;13.482;2023-11-21T05:07:45;7.47;;;5.32;;
83562;SDS011;73535;52.500;13.482;2023-11-21T05:10:10;6.68;;;5.13;;
83562;SDS011;73535;52.500;13.482;2023-11-21T05:12:37;6.25;;;4.63;;
83562;SDS011;73535;52.500;13.482;2023-11-21T05:15:03;7.47;;;4.30;;
83562;SDS011;73535;52.500;13.482;2023-11-21T05:17:32;7.53;;;4.63;;
83562;SDS011;73535;52.500;13.482;2023-11-21T05:19:57;7.38;;;4.78;;
83562;SDS011;73535;52.500;13.482;2023-11-21T05:22:22;7.22;;;5.35;;
83562;SDS011;73535;52.500;13.482;2023-11-21T05:24:48;9.55;;;4.75;;
83562;SDS011;73535;52.500;13.482;2023-11-21T05:27:13;6.68;;;4.43;;
83562;SDS011;73535;52.500;13.482;2023-11-21T05:29:39;7.78;;;5.63;;
83562;SDS011;73535;52.500;13.482;2023-11-21T05:32:04;6.95;;;4.95;;
83562;SDS011;73535;52.500;13.482;2023-11-21T05:34:30;6.68;;;5.03;;
83562;SDS011;73535;52.500;13.482;2023-11-21T05:36:55;7.43;;;5.30;;
83562;SDS011;73535;52.500;13.482;2023-11-21T05:39:23;6.35;;;4.97;;
83562;SDS011;73535;52.500;13.482;2023-11-21T05:41:49;7.63;;;4.68;;
83562;SDS011;73535;52.500;13.482;2023-11-21T05:44:14;7.28;;;4.97;;
83562;SDS011;73535;52.500;13.482;2023-11-21T05:46:40;6.82;;;5.00;;
83562;SDS011;73535;52.500;13.482;2023-11-21T05:49:05;7.85;;;5.30;;
83562;SDS011;73535;52.500;13.482;2023-11-21T05:51:30;7.07;;;4.80;;
83562;SDS011;73535;52.500;13.482;2023-11-21T05:53:56;7.20;;;5.53;;
83562;SDS011;73535;52.500;13.482;2023-11-21T05:56:21;6.65;;;4.60;;
83562;SDS011;73535;52.500;13.482;2023-11-21T05:58:46;7.53;;;5.10;;
83562;SDS011;73535;52.500;13.482;2023-11-21T06:01:11;5.95;;;4.15;;
83562;SDS011;73535;52.500;13.482;2023-11-21T06:03:37;5.88;;;3.78;;
83562;SDS011;73535;52.500;13.482;2023-11-21T06:06:03;5.78;;;3.83;;
83562;SDS011;73535;52.500;13.482;2023-11-21T06:08:29;8.00;;;4.65;;
83562;SDS011;73535;52.500;13.482;2023-11-21T06:10:54;6.05;;;4.30;;
83562;SDS011;73535;52.500;13.482;2023-11-21T06:13:20;6.78;;;4.82;;
83562;SDS011;73535;52.500;13.482;2023-11-21T06:15:49;6.38;;;4.57;;
83562;SDS011;73535;52.500;13.482;2023-11-21T06:18:14;6.70;;;5.07;;
83562;SDS011;73535;52.500;13.482;2023-11-21T06:20:39;7.47;;;4.68;;
83562;SDS011;73535;52.500;13.482;2023-11-21T06:23:04;8.32;;;5.35;;
83562;SDS011;73535;52.500;13.482;2023-11-21T06:25:30;6.97;;;5.10;;
83562;SDS011;73535;52.500;13.482;2023-11-21T06:27:58;7.03;;;5.13;;
83562;SDS011;73535;52.500;13.482;2023-11-21T06:30:24;7.32;;;5.03;;
83562;SDS011;73535;52.500;13.482;2023-11-21T06:32:49;6.55;;;5.03;;
83562;SDS011;73535;52.500;13.482;2023-11-21T06:35:16;8.13;;;5.40;;
83562;SDS011;73535;52.500;13.482;2023-11-21T06:37:41;9.20;;;5.65;;
83562;SDS011;73535;52.500;13.482;2023-11-21T06:40:07;7.38;;;5.32;;
83562;SDS011;73535;52.500;13.482;2023-11-21T06:42:34;8.52;;;6.13;;
83562;SDS011;73535;52.500;13.482;2023-11-21T06:44:59;8.98;;;6.93;;
83562;SDS011;73535;52.500;13.482;2023-11-21T06:47:28;8.38;;;5.88;;
83562;SDS011;73535;52.500;13.482;2023-11-21T06:49:54;8.48;;;5.30;;
83562;SDS011;73535;52.500;13.482;2023-11-21T06:52:19;8.95;;;5.38;;
83562;SDS011;73535;52.500;13.482;2023-11-21T06:54:45;6.70;;;5.30;;
83562;SDS011;73535;52.500;13.482;2023-11-21T06:57:12;7.68;;;5.63;;
83562;SDS011;73535;52.500;13.482;2023-11-21T06:59:37;8.43;;;4.72;;
83562;SDS011;73535;52.500;13.482;2023-11-21T07:02:03;10.52;;;4.47;;
83562;SDS011;73535;52.500;13.482;2023-11-21T07:04:31;8.13;;;5.05;;
83562;SDS011;73535;52.500;13.482;2023-11-21T07:06:57;8.10;;;5.13;;
83562;SDS011;73535;52.500;13.482;2023-11-21T07:09:22;6.68;;;4.95;;
83562;SDS011;73535;52.500;13.482;2023-11-21T07:11:48;6.70;;;4.68;;
83562;SDS011;73535;52.500;13.482;2023-11-21T07:14:13;6.40;;;4.90;;
83562;SDS011;73535;52.500;13.482;2023-11-21T07:16:39;6.55;;;4.60;;
83562;SDS011;73535;52.500;13.482;2023-11-21T07:19:05;7.35;;;4.55;;
83562;SDS011;73535;52.500;13.482;2023-11-21T07:21:34;6.90;;;4.75;;
83562;SDS011;73535;52.500;13.482;2023-11-21T07:24:02;7.22;;;4.85;;
83562;SDS011;73535;52.500;13.482;2023-11-21T07:26:28;7.18;;;5.03;;
83562;SDS011;73535;52.500;13.482;2023-11-21T07:28:55;7.05;;;4.80;;
83562;SDS011;73535;52.500;13.482;2023-11-21T07:31:21;6.60;;;4.70;;
83562;SDS011;73535;52.500;13.482;2023-11-21T07:33:47;5.45;;;4.35;;
83562;SDS011;73535;52.500;13.482;2023-11-21T07:36:12;6.93;;;4.25;;
83562;SDS011;73535;52.500;13.482;2023-11-21T07:38:43;5.50;;;3.47;;
83562;SDS011;73535;52.500;13.482;2023-11-21T07:41:09;6.00;;;4.30;;
83562;SDS011;73535;52.500;13.482;2023-11-21T07:43:35;7.00;;;4.00;;
83562;SDS011;73535;52.500;13.482;2023-11-21T07:46:03;4.80;;;3.67;;
83562;SDS011;73535;52.500;13.482;2023-11-21T07:48:29;5.80;;;3.63;;
83562;SDS011;73535;52.500;13.482;2023-11-21T07:50:55;6.43;;;4.13;;
83562;SDS011;73535;52.500;13.482;2023-11-21T07:53:20;7.75;;;3.92;;
83562;SDS011;73535;52.500;13.482;2023-11-21T07:55:47;8.40;;;4.25;;
83562;SDS011;73535;52.500;13.482;2023-11-21T07:58:12;7.57;;;4.13;;
83562;SDS011;73535;52.500;13.482;2023-11-21T08:00:37;10.73;;;4.97;;
83562;SDS011;73535;52.500;13.482;2023-11-21T08:05:29;11.83;;;5.10;;
83562;SDS011;73535;52.500;13.482;2023-11-21T08:07:54;7.88;;;4.80;;
83562;SDS011;73535;52.500;13.482;2023-11-21T08:10:20;10.25;;;4.85;;
83562;SDS011;73535;52.500;13.482;2023-11-21T08:12:46;12.65;;;6.03;;
83562;SDS011;73535;52.500;13.482;2023-11-21T08:15:13;11.90;;;5.95;;
83562;SDS011;73535;52.500;13.482;2023-11-21T08:17:38;15.27;;;6.85;;
83562;SDS011;73535;52.500;13.482;2023-11-21T08:20:04;11.93;;;5.40;;
83562;SDS011;73535;52.500;13.482;2023-11-21T08:22:29;13.85;;;6.22;;
83562;SDS011;73535;52.500;13.482;2023-11-21T08:24:55;16.80;;;7.00;;
83562;SDS011;73535;52.500;13.482;2023-11-21T08:27:21;16.70;;;6.70;;
83562;SDS011;73535;52.500;13.482;2023-11-21T08:29:46;13.88;;;7.22;;
83562;SDS011;73535;52.500;13.482;2023-11-21T08:32:12;16.58;;;6.85;;
83562;SDS011;73535;52.500;13.482;2023-11-21T08:34:37;17.63;;;7.22;;
83562;SDS011;73535;52.500;13.482;2023-11-21T08:37:04;13.68;;;7.35;;
83562;SDS011;73535;52.500;13.482;2023-11-21T08:39:30;14.93;;;7.60;;
83562;SDS011;73535;52.500;13.482;2023-11-21T08:41:56;15.82;;;6.85;;
83562;SDS011;73535;52.500;13.482;2023-11-21T08:44:22;15.77;;;6.88;;
83562;SDS011;73535;52.500;13.482;2023-11-21T08:46:48;16.00;;;7.43;;
83562;SDS011;73535;52.500;13.482;2023-11-21T08:49:13;16.20;;;6.93;;
83562;SDS011;73535;52.500;13.482;2023-11-21T08:51:40;18.55;;;7.40;;
83562;SDS011;73535;52.500;13.482;2023-11-21T08:54:05;17.98;;;7.35;;
83562;SDS011;73535;52.500;13.482;2023-11-21T08:56:33;14.25;;;7.57;;
83562;SDS011;73535;52.500;13.482;2023-11-21T08:58:59;19.80;;;8.13;;
83562;SDS011;73535;52.500;13.482;2023-11-21T09:01:27;15.93;;;7.35;;
83562;SDS011;73535;52.500;13.482;2023-11-21T09:03:52;19.55;;;8.18;;
83562;SDS011;73535;52.500;13.482;2023-11-21T09:06:17;22.17;;;7.65;;
83562;SDS011;73535;52.500;13.482;2023-11-21T09:08:43;17.52;;;7.75;;
83562;SDS011;73535;52.500;13.482;2023-11-21T09:11:08;15.27;;;7.32;;
83562;SDS011;73535;52.500;13.482;2023-11-21T09:13:33;15.02;;;6.60;;
83562;SDS011;73535;52.500;13.482;2023-11-21T09:15:59;13.73;;;5.88;;
83562;SDS011;73535;52.500;13.482;2023-11-21T09:18:24;13.85;;;6.50;;
83562;SDS011;73535;52.500;13.482;2023-11-21T09:20:50;16.40;;;6.78;;
83562;SDS011;73535;52.500;13.482;2023-11-21T09:23:15;13.68;;;6.05;;
83562;SDS011;73535;52.500;13.482;2023-11-21T09:25:40;13.18;;;5.60;;
83562;SDS011;73535;52.500;13.482;2023-11-21T09:28:06;10.98;;;4.95;;
83562;SDS011;73535;52.500;13.482;2023-11-21T09:30:33;8.98;;;3.70;;
83562;SDS011;73535;52.500;13.482;2023-11-21T09:33:00;6.93;;;3.70;;
83562;SDS011;73535;52.500;13.482;2023-11-21T09:35:25;6.78;;;3.30;;
83562;SDS011;73535;52.500;13.482;2023-11-21T09:37:51;6.22;;;3.00;;
83562;SDS011;73535;52.500;13.482;2023-11-21T09:40:17;4.07;;;2.63;;
83562;SDS011;73535;52.500;13.482;2023-11-21T09:45:26;6.65;;;2.25;;
83562;SDS011;73535;52.500;13.482;2023-11-21T09:50:24;3.65;;;2.17;;
83562;SDS011;73535;52.500;13.482;2023-11-21T09:52:55;3.42;;;1.90;;
83562;SDS011;73535;52.500;13.482;2023-11-21T09:55:43;3.78;;;2.42;;
83562;SDS011;73535;52.500;13.482;2023-11-21T09:58:10;5.25;;;2.40;;
83562;SDS011;73535;52.500;13.482;2023-11-21T10:00:40;4.30;;;1.95;;
83562;SDS011;73535;52.500;13.482;2023-11-21T10:03:05;4.20;;;2.20;;
83562;SDS011;73535;52.500;13.482;2023-11-21T10:05:30;5.22;;;2.17;;
83562;SDS011;73535;52.500;13.482;2023-11-21T10:07:59;4.72;;;1.83;;
83562;SDS011;73535;52.500;13.482;2023-11-21T10:10:25;2.63;;;1.90;;
83562;SDS011;73535;52.500;13.482;2023-11-21T10:12:51;2.65;;;1.63;;
83562;SDS011;73535;52.500;13.482;2023-11-21T10:15:21;3.30;;;1.70;;
83562;SDS011;73535;52.500;13.482;2023-11-21T10:17:48;2.10;;;1.67;;
83562;SDS011;73535;52.500;13.482;2023-11-21T10:20:14;3.53;;;1.80;;
83562;SDS011;73535;52.500;13.482;2023-11-21T10:22:41;3.30;;;1.63;;
83562;SDS011;73535;52.500;13.482;2023-11-21T10:25:08;1.98;;;1.60;;
83562;SDS011;73535;52.500;13.482;2023-11-21T10:27:36;2.15;;;1.85;;
83562;SDS011;73535;52.500;13.482;2023-11-21T10:30:04;3.95;;;1.65;;
83562;SDS011;73535;52.500;13.482;2023-11-21T10:32:36;4.47;;;1.80;;
83562;SDS011;73535;52.500;13.482;2023-11-21T10:35:02;3.75;;;2.30;;
83562;SDS011;73535;52.500;13.482;2023-11-21T10:37:32;3.55;;;2.30;;
83562;SDS011;73535;52.500;13.482;2023-11-21T10:39:58;2.00;;;1.80;;
83562;SDS011;73535;52.500;13.482;2023-11-21T10:44:49;2.15;;;1.90;;
83562;SDS011;73535;52.500;13.482;2023-11-21T10:47:15;3.28;;;2.22;;
83562;SDS011;73535;52.500;13.482;2023-11-21T10:49:41;3.08;;;1.83;;
83562;SDS011;73535;52.500;13.482;2023-11-21T10:52:07;5.22;;;2.30;;
83562;SDS011;73535;52.500;13.482;2023-11-21T10:54:32;3.53;;;2.20;;
83562;SDS011;73535;52.500;13.482;2023-11-21T10:56:58;3.08;;;2.22;;
83562;SDS011;73535;52.500;13.482;2023-11-21T10:59:26;2.85;;;2.10;;
83562;SDS011;73535;52.500;13.482;2023-11-21T11:01:54;3.80;;;2.70;;
83562;SDS011;73535;52.500;13.482;2023-11-21T11:04:22;2.70;;;2.20;;
83562;SDS011;73535;52.500;13.482;2023-11-21T11:06:55;4.47;;;2.58;;
83562;SDS011;73535;52.500;13.482;2023-11-21T11:09:22;5.93;;;2.97;;
83562;SDS011;73535;52.500;13.482;2023-11-21T11:11:48;3.83;;;2.60;;
83562;SDS011;73535;52.500;13.482;2023-11-21T11:14:14;4.72;;;3.08;;
83562;SDS011;73535;52.500;13.482;2023-11-21T11:16:40;3.90;;;2.95;;
83562;SDS011;73535;52.500;13.482;2023-11-21T11:19:10;4.10;;;3.00;;
83562;SDS011;73535;52.500;13.482;2023-11-21T11:21:42;4.20;;;3.25;;
83562;SDS011;73535;52.500;13.482;2023-11-21T11:24:42;4.03;;;3.35;;
83562;SDS011;73535;52.500;13.482;2023-11-21T11:27:30;6.80;;;3.22;;
83562;SDS011;73535;52.500;13.482;2023-11-21T11:30:16;5.10;;;3.50;;
83562;SDS011;73535;52.500;13.482;2023-11-21T11:35:19;6.85;;;3.75;;
83562;SDS011;73535;52.500;13.482;2023-11-21T11:37:54;6.63;;;4.18;;
83562;SDS011;73535;52.500;13.482;2023-11-21T11:40:19;5.20;;;4.15;;
83562;SDS011;73535;52.500;13.482;2023-11-21T11:42:57;3.97;;;3.42;;
83562;SDS011;73535;52.500;13.482;2023-11-21T11:45:32;4.47;;;3.90;;
83562;SDS011;73535;52.500;13.482;2023-11-21T11:47:59;3.83;;;3.45;;
83562;SDS011;73535;52.500;13.482;2023-11-21T11:50:25;4.07;;;3.03;;
83562;SDS011;73535;52.500;13.482;2023-11-21T11:52:54;3.25;;;2.95;;
83562;SDS011;73535;52.500;13.482;2023-11-21T11:55:22;3.67;;;3.08;;
83562;SDS011;73535;52.500;13.482;2023-11-21T11:57:52;3.80;;;2.80;;
83562;SDS011;73535;52.500;13.482;2023-11-21T12:00:23;4.32;;;2.90;;
83562;SDS011;73535;52.500;13.482;2023-11-21T12:03:02;3.30;;;3.00;;
83562;SDS011;73535;52.500;13.482;2023-11-21T12:05:28;3.65;;;2.72;;
83562;SDS011;73535;52.500;13.482;2023-11-21T12:07:59;3.17;;;2.78;;
83562;SDS011;73535;52.500;13.482;2023-11-21T12:10:27;2.88;;;2.53;;
83562;SDS011;73535;52.500;13.482;2023-11-21T12:15:26;3.72;;;2.85;;
83562;SDS011;73535;52.500;13.482;2023-11-21T12:17:54;3.67;;;2.88;;
83562;SDS011;73535;52.500;13.482;2023-11-21T12:20:20;4.68;;;3.05;;
83562;SDS011;73535;52.500;13.482;2023-11-21T12:22:47;3.30;;;2.78;;
83562;SDS011;73535;52.500;13.482;2023-11-21T12:25:14;3.20;;;2.60;;
83562;SDS011;73535;52.500;13.482;2023-11-21T12:27:41;3.60;;;2.55;;
83562;SDS011;73535;52.500;13.482;2023-11-21T12:30:07;4.18;;;2.30;;
83562;SDS011;73535;52.500;13.482;2023-11-21T12:32:38;3.45;;;2.88;;
83562;SDS011;73535;52.500;13.482;2023-11-21T12:35:03;3.42;;;2.55;;
83562;SDS011;73535;52.500;13.482;2023-11-21T12:37:31;3.42;;;2.83;;
83562;SDS011;73535;52.500;13.482;2023-11-21T12:39:57;4.20;;;2.75;;
83562;SDS011;73535;52.500;13.482;2023-11-21T12:42:22;4.47;;;3.08;;
83562;SDS011;73535;52.500;13.482;2023-11-21T12:44:48;3.22;;;2.60;;
83562;SDS011;73535;52.500;13.482;2023-11-21T12:47:30;4.90;;;2.90;;
83562;SDS011;73535;52.500;13.482;2023-11-21T12:49:55;3.67;;;2.80;;
83562;SDS011;73535;52.500;13.482;2023-11-21T12:52:24;3.78;;;2.50;;
83562;SDS011;73535;52.500;13.482;2023-11-21T12:54:49;4.32;;;3.08;;
83562;SDS011;73535;52.500;13.482;2023-11-21T12:57:15;3.22;;;2.75;;
83562;SDS011;73535;52.500;13.482;2023-11-21T12:59:40;2.95;;;2.65;;
83562;SDS011;73535;52.500;13.482;2023-11-21T13:02:08;3.58;;;3.00;;
83562;SDS011;73535;52.500;13.482;2023-11-21T13:04:34;3.28;;;2.70;;
83562;SDS011;73535;52.500;13.482;2023-11-21T13:07:03;3.47;;;3.13;;
83562;SDS011;73535;52.500;13.482;2023-11-21T13:09:32;3.67;;;2.65;;
83562;SDS011;73535;52.500;13.482;2023-11-21T13:12:01;3.20;;;2.10;;
83562;SDS011;73535;52.500;13.482;2023-11-21T13:14:29;4.13;;;2.58;;
83562;SDS011;73535;52.500;13.482;2023-11-21T13:16:56;3.45;;;2.65;;
83562;SDS011;73535;52.500;13.482;2023-11-21T13:19:22;4.32;;;3.25;;
83562;SDS011;73535;52.500;13.482;2023-11-21T13:21:49;3.85;;;2.90;;
83562;SDS011;73535;52.500;13.482;2023-11-21T13:24:14;4.65;;;3.25;;
83562;SDS011;73535;52.500;13.482;2023-11-21T13:26:39;3.63;;;2.63;;
83562;SDS011;73535;52.500;13.482;2023-11-21T13:29:05;3.95;;;2.85;;
83562;SDS011;73535;52.500;13.482;2023-11-21T13:31:30;3.80;;;3.13;;
83562;SDS011;73535;52.500;13.482;2023-11-21T13:33:57;4.38;;;3.17;;
83562;SDS011;73535;52.500;13.482;2023-11-21T13:36:29;5.13;;;3.40;;
83562;SDS011;73535;52.500;13.482;2023-11-21T13:38:57;4.90;;;3.85;;
83562;SDS011;73535;52.500;13.482;2023-11-21T13:41:23;4.88;;;3.38;;
83562;SDS011;73535;52.500;13.482;2023-11-21T13:43:55;5.10;;;3.67;;
83562;SDS011;73535;52.500;13.482;2023-11-21T13:46:29;6.00;;;4.13;;
83562;SDS011;73535;52.500;13.482;2023-11-21T13:49:00;5.93;;;4.55;;
83562;SDS011;73535;52.500;13.482;2023-11-21T13:51:25;6.13;;;4.38;;
83562;SDS011;73535;52.500;13.482;2023-11-21T13:54:04;5.75;;;4.65;;
83562;SDS011;73535;52.500;13.482;2023-11-21T13:56:34;8.38;;;4.25;;
83562;SDS011;73535;52.500;13.482;2023-11-21T13:58:59;6.22;;;4.72;;
83562;SDS011;73535;52.500;13.482;2023-11-21T14:01:33;6.65;;;4.47;;
83562;SDS011;73535;52.500;13.482;2023-11-21T14:04:17;8.13;;;5.30;;
83562;SDS011;73535;52.500;13.482;2023-11-21T14:06:43;6.83;;;5.03;;
83562;SDS011;73535;52.500;13.482;2023-11-21T14:09:22;9.65;;;5.72;;
83562;SDS011;73535;52.500;13.482;2023-11-21T14:11:53;8.52;;;5.82;;
83562;SDS011;73535;52.500;13.482;2023-11-21T14:14:21;12.90;;;6.22;;
83562;SDS011;73535;52.500;13.482;2023-11-21T14:16:48;10.35;;;6.85;;
83562;SDS011;73535;52.500;13.482;2023-11-21T14:19:14;11.82;;;7.53;;
83562;SDS011;73535;52.500;13.482;2023-11-21T14:21:45;9.63;;;7.70;;
83562;SDS011;73535;52.500;13.482;2023-11-21T14:24:11;11.95;;;8.18;;
83562;SDS011;73535;52.500;13.482;2023-11-21T14:26:38;13.27;;;9.05;;
83562;SDS011;73535;52.500;13.482;2023-11-21T14:29:04;14.43;;;9.70;;
83562;SDS011;73535;52.500;13.482;2023-11-21T14:31:30;13.82;;;10.02;;
83562;SDS011;73535;52.500;13.482;2023-11-21T14:33:57;14.93;;;10.23;;
83562;SDS011;73535;52.500;13.482;2023-11-21T14:36:22;15.55;;;11.80;;
83562;SDS011;73535;52.500;13.482;2023-11-21T14:38:48;16.15;;;11.27;;
83562;SDS011;73535;52.500;13.482;2023-11-21T14:41:14;17.83;;;11.60;;
83562;SDS011;73535;52.500;13.482;2023-11-21T14:43:39;17.73;;;11.73;;
83562;SDS011;73535;52.500;13.482;2023-11-21T14:46:05;16.30;;;11.20;;
83562;SDS011;73535;52.500;13.482;2023-11-21T14:48:34;17.35;;;12.10;;